Queen Of Burnaby — VCVV — position and weather

sailwx.info

Track history (hours):
 
Tides and Currents Weather Stations Pressure Air Temp Water Temp Dewpoint Dewpoint Depression Visibility Wind Speed Wind Dir Waves Ship Positions

Queen Of Burnaby

Last reported at 2016-Feb-08 14:33 UTC. Time now 2016-Feb-08 14:36 UTC.
Position N 49°45' W 124°53'.

Length 130 m; draft 4 m.

MMSI: 316001246.

Date/timePositionNaut miles runAvg speedWind from/ knotsBaromVisibWave heightAir tempDewpointWater temp
2016-Feb-08 14:33N 49°45' W 124°53'2 2.0
2016-Feb-08 13:33N 49°44' W 124°55'0 0.0
2016-Feb-08 12:33N 49°44' W 124°55'0 0.0
2016-Feb-08 11:33N 49°44' W 124°55'0 0.0
2016-Feb-08 10:30N 49°44' W 124°55'0 0.0
2016-Feb-08 09:21N 49°44' W 124°55'0 0.0
2016-Feb-08 08:33N 49°44' W 124°55'0 0.0
2016-Feb-08 07:12N 49°44' W 124°55'0 0.0
2016-Feb-08 06:24N 49°44' W 124°55'5 6.1
2016-Feb-08 05:34N 49°46' W 124°48'1111.1
2016-Feb-08 04:33N 49°50' W 124°32'1313.5
2016-Feb-08 03:33N 49°45' W 124°51'2 1.5
2016-Feb-08 02:33N 49°45' W 124°54'1211.5
2016-Feb-08 01:33N 49°49' W 124°37'3 2.6
2016-Feb-08 00:33N 49°50' W 124°33'1515.1
2016-Feb-07 23:33N 49°45' W 124°55'0 0.3
2016-Feb-07 22:30N 49°44' W 124°55'0 0.0
2016-Feb-07 21:30N 49°44' W 124°55'8 8.0
2016-Feb-07 20:33N 49°47' W 124°44'9 8.5
2016-Feb-07 19:32N 49°50' W 124°32'1010.4
2016-Feb-07 18:33N 49°46' W 124°46'6 6.2
2016-Feb-07 17:33N 49°44' W 124°55'1110.8
2016-Feb-07 16:34N 49°48' W 124°40'3 3.5
2016-Feb-07 15:33N 49°50' W 124°35'1212.3
2016-Feb-07 14:33N 49°45' W 124°53'2 1.9
2016-Feb-07 13:30N 49°44' W 124°55'0 0.0
2016-Feb-07 12:33N 49°44' W 124°55'0 0.0
2016-Feb-07 11:24N 49°44' W 124°55'0 0.0
2016-Feb-07 10:30N 49°44' W 124°55'0 0.0
2016-Feb-07 09:33N 49°44' W 124°55'0 0.0
2016-Feb-07 08:33N 49°44' W 124°55'0 0.0
2016-Feb-07 07:33N 49°44' W 124°55'0 0.0
2016-Feb-07 06:30N 49°44' W 124°55'5 5.5
2016-Feb-07 05:33N 49°46' W 124°48'1111.1
2016-Feb-07 04:33N 49°50' W 124°32'9 9.2
2016-Feb-07 03:33N 49°47' W 124°45'7 6.6
2016-Feb-07 02:29N 49°44' W 124°55'0 0.0
2016-Feb-07 01:26N 49°44' W 124°55'0 0.0
2016-Feb-07 00:23N 49°44' W 124°55'0 0.0
2016-Feb-06 22:29N 49°44' W 124°55'0 0.0
2016-Feb-06 21:29N 49°44' W 124°55'7 7.6
2016-Feb-06 20:33N 49°47' W 124°45'9 8.7
2016-Feb-06 19:31N 49°50' W 124°32'1010.9
2016-Feb-06 18:33N 49°47' W 124°47'6 5.8
2016-Feb-06 17:33N 49°44' W 124°55'1111.4
2016-Feb-06 16:33N 49°48' W 124°39'3 3.3
2016-Feb-06 15:33N 49°50' W 124°35'1312.7
2016-Feb-06 14:33N 49°45' W 124°53'2 1.9
2016-Feb-06 13:31N 49°44' W 124°55'0 0.0
2016-Feb-06 12:28N 49°44' W 124°55'0 0.0
2016-Feb-06 11:31N 49°44' W 124°55'0 0.0
2016-Feb-06 10:16N 49°44' W 124°55'0 0.0
2016-Feb-06 09:31N 49°44' W 124°55'0 0.0
2016-Feb-06 08:31N 49°44' W 124°55'0 0.0
2016-Feb-06 07:25N 49°44' W 124°55'0 0.0
2016-Feb-06 06:28N 49°44' W 124°55'8 8.3
2016-Feb-06 05:33N 49°47' W 124°45'9 8.6
2016-Feb-06 04:33N 49°50' W 124°32'1413.6
2016-Feb-06 03:33N 49°45' W 124°52'3 2.5
2016-Feb-06 02:29N 49°44' W 124°55'0 0.0
2016-Feb-06 01:32N 49°44' W 124°55'0 0.0
2016-Feb-06 00:29N 49°44' W 124°55'0 0.0
2016-Feb-05 23:32N 49°44' W 124°55'0 0.0
2016-Feb-05 22:23N 49°44' W 124°55'0 0.0
2016-Feb-05 21:32N 49°44' W 124°55'1010.7
2016-Feb-05 20:34N 49°45' W 124°39'7 7.2
2016-Feb-05 19:33N 49°50' W 124°32'1010.3
2016-Feb-05 18:33N 49°45' W 124°46'6 6.2
2016-Feb-05 17:33N 49°44' W 124°55'0 0.0
2016-Feb-05 16:23N 49°44' W 124°55'0 0.0
2016-Feb-05 15:32N 49°44' W 124°55'0 0.0
2016-Feb-05 14:29N 49°44' W 124°55'0 0.0
2016-Feb-05 13:32N 49°44' W 124°55'0 0.0
2016-Feb-05 12:23N 49°44' W 124°55'0 0.0
2016-Feb-05 11:29N 49°44' W 124°55'0 0.0
2016-Feb-05 10:26N 49°44' W 124°55'0 0.0
2016-Feb-05 09:32N 49°44' W 124°55'0 0.0
2016-Feb-05 08:32N 49°44' W 124°55'0 0.0
2016-Feb-05 07:32N 49°44' W 124°55'0 0.0
2016-Feb-05 06:29N 49°44' W 124°55'8 8.7
2016-Feb-05 05:33N 49°47' W 124°44'8 8.1
2016-Feb-05 04:33N 49°50' W 124°32'1313.0
2016-Feb-05 03:33N 49°45' W 124°51'3 3.1
2016-Feb-05 02:34N 49°44' W 124°55'1313.2
2016-Feb-05 01:34N 49°49' W 124°36'2 2.1
2016-Feb-05 00:33N 49°50' W 124°33'1312.7
2016-Feb-04 23:33N 49°46' W 124°52'3 2.2
2016-Feb-04 22:20N 49°44' W 124°55'0 0.0
2016-Feb-04 21:32N 49°44' W 124°55'8 7.8
2016-Feb-04 20:33N 49°47' W 124°44'9 8.5
2016-Feb-04 19:33N 49°50' W 124°32'10 9.7
2016-Feb-04 18:33N 49°47' W 124°46'6 6.2
2016-Feb-04 17:30N 49°44' W 124°55'1111.9
2016-Feb-04 16:33N 49°48' W 124°39'3 3.3
2016-Feb-04 15:33N 49°50' W 124°35'1313.4
2016-Feb-04 14:33N 49°45' W 124°54'1 1.2
2016-Feb-04 13:31N 49°44' W 124°55'0 0.0
2016-Feb-04 10:25N 49°44' W 124°55'0 0.0
2016-Feb-04 09:31N 49°44' W 124°55'6 1.5
2016-Feb-04 05:33N 49°47' W 124°47'1010.1
2016-Feb-04 04:33N 49°50' W 124°32'10 9.6
2016-Feb-04 03:33N 49°45' W 124°45'7 5.0
2016-Feb-04 02:10N 49°44' W 124°55'0 0.0
2016-Feb-04 01:31N 49°44' W 124°55'0 0.0
2016-Feb-04 00:31N 49°44' W 124°55'0 0.0
2016-Feb-03 23:28N 49°44' W 124°55'0 0.0
2016-Feb-03 22:28N 49°44' W 124°55'0 0.0
2016-Feb-03 21:28N 49°44' W 124°55'1010.7
2016-Feb-03 20:34N 49°43' W 124°40'9 8.9
2016-Feb-03 19:33N 49°50' W 124°32'10 9.8
2016-Feb-03 18:33N 49°45' W 124°45'7 6.6
2016-Feb-03 17:34N 49°44' W 124°55'1010.5
2016-Feb-03 16:33N 49°47' W 124°40'5 4.6
2016-Feb-03 15:33N 49°50' W 124°35'1312.8
2016-Feb-03 14:34N 49°46' W 124°53'2 1.7
2016-Feb-03 13:27N 49°44' W 124°55'0 0.0
2016-Feb-03 12:30N 49°44' W 124°55'0 0.0
2016-Feb-03 11:30N 49°44' W 124°55'0 0.0
2016-Feb-03 10:33N 49°44' W 124°55'0 0.0
2016-Feb-03 09:33N 49°44' W 124°55'0 0.0
2016-Feb-03 08:30N 49°44' W 124°55'0 0.0
2016-Feb-03 07:33N 49°44' W 124°55'0 0.0
2016-Feb-03 06:30N 49°44' W 124°55'5 5.6
2016-Feb-03 05:33N 49°47' W 124°48'1110.9
2016-Feb-03 04:33N 49°50' W 124°32'1313.3
2016-Feb-03 03:33N 49°46' W 124°51'3 2.9
2016-Feb-03 02:33N 49°44' W 124°55'1212.3
2016-Feb-03 01:34N 49°49' W 124°38'3 2.9
2016-Feb-03 00:33N 49°50' W 124°34'1212.3
2016-Feb-02 23:33N 49°46' W 124°52'3 2.6
2016-Feb-02 22:29N 49°44' W 124°55'0 0.0
2016-Feb-02 21:29N 49°44' W 124°55'8 9.0
2016-Feb-02 20:33N 49°47' W 124°44'8 8.0
2016-Feb-02 19:34N 49°50' W 124°32'1010.0
2016-Feb-02 18:33N 49°47' W 124°47'6 6.1
2016-Feb-02 17:33N 49°44' W 124°55'1111.4
2016-Feb-02 16:34N 49°48' W 124°39'4 3.5
2016-Feb-02 15:33N 49°50' W 124°34'1313.2
2016-Feb-02 14:33N 49°45' W 124°53'2 1.3
2016-Feb-02 13:24N 49°44' W 124°55'0 0.0
2016-Feb-02 12:33N 49°44' W 124°55'0 0.0
2016-Feb-02 11:30N 49°44' W 124°55'0 0.0
2016-Feb-02 10:30N 49°44' W 124°55'0 0.0
2016-Feb-02 09:30N 49°44' W 124°55'0 0.0
2016-Feb-02 07:12N 49°44' W 124°55'0 0.0
2016-Feb-02 06:24N 49°44' W 124°55'8 9.9
2016-Feb-02 05:33N 49°48' W 124°44'6 6.2
2016-Feb-02 04:33N 49°50' W 124°35'1414.3
2016-Feb-02 03:33N 49°44' W 124°55'0 0.0
2016-Feb-02 02:33N 49°44' W 124°55'1212.4
2016-Feb-02 01:33N 49°49' W 124°38'3 2.6
2016-Feb-02 00:33N 49°50' W 124°34'1212.2
2016-Feb-01 23:33N 49°45' W 124°52'3 2.3
2016-Feb-01 22:27N 49°44' W 124°55'0 0.0
2016-Feb-01 21:19N 49°44' W 124°55'810.1
2016-Feb-01 20:34N 49°47' W 124°44'9 8.5
2016-Feb-01 19:33N 49°50' W 124°32'10 9.9
2016-Feb-01 18:33N 49°47' W 124°46'6 6.2
2016-Feb-01 17:32N 49°44' W 124°55'1212.0
2016-Feb-01 16:34N 49°49' W 124°38'2 2.0
2016-Feb-01 15:33N 49°50' W 124°36'1212.0
2016-Feb-01 14:33N 49°45' W 124°53'2 0.9
2016-Feb-01 12:33N 49°44' W 124°55'0 0.0
2016-Feb-01 11:33N 49°44' W 124°55'0 0.0
2016-Feb-01 07:18N 49°44' W 124°55'0 0.0
2016-Feb-01 06:33N 49°44' W 124°55'5 5.3
2016-Feb-01 05:33N 49°46' W 124°48'1110.9
2016-Feb-01 04:34N 49°50' W 124°32'1312.6
2016-Feb-01 03:34N 49°46' W 124°50'2 2.2
2016-Feb-01 02:33N 49°45' W 124°53'1111.4
2016-Feb-01 01:33N 49°49' W 124°37'3 3.1
2016-Feb-01 00:33N 49°50' W 124°33'1313.0
2016-Jan-31 23:33N 49°46' W 124°51'3 2.3
2016-Jan-31 22:19N 49°44' W 124°55'0 0.0
2016-Jan-31 21:28N 49°44' W 124°55'8 9.2
2016-Jan-31 20:33N 49°47' W 124°43'8 7.8
2016-Jan-31 19:33N 49°50' W 124°32'10 9.8
2016-Jan-31 18:33N 49°47' W 124°46'6 6.4
2016-Jan-31 17:33N 49°44' W 124°55'1110.8
2016-Jan-31 16:33N 49°48' W 124°40'3 3.3
2016-Jan-31 15:33N 49°50' W 124°35'1313.0
2016-Jan-31 14:33N 49°45' W 124°54'1 1.1
2016-Jan-31 13:31N 49°44' W 124°55'0 0.0
2016-Jan-31 12:31N 49°44' W 124°55'0 0.0
2016-Jan-31 11:28N 49°44' W 124°55'0 0.0
2016-Jan-31 10:28N 49°44' W 124°55'0 0.0
2016-Jan-31 09:28N 49°44' W 124°55'0 0.0
2016-Jan-31 08:28N 49°44' W 124°55'0 0.0
2016-Jan-31 07:28N 49°44' W 124°55'0 0.0
2016-Jan-31 06:28N 49°44' W 124°55'5 6.0
2016-Jan-31 05:34N 49°46' W 124°48'1110.8
2016-Jan-31 04:33N 49°50' W 124°32'9 8.9
2016-Jan-31 03:33N 49°47' W 124°45'7 6.8
2016-Jan-31 02:29N 49°44' W 124°55'0 0.0
2016-Jan-31 01:29N 49°44' W 124°55'0 0.0
2016-Jan-31 00:32N 49°44' W 124°55'0 0.0
2016-Jan-30 23:33N 49°44' W 124°55'0 0.0
2016-Jan-30 22:33N 49°44' W 124°55'0 0.0
2016-Jan-30 21:33N 49°44' W 124°55'8 7.7
2016-Jan-30 20:34N 49°46' W 124°44'9 8.7
2016-Jan-30 19:33N 49°50' W 124°32'9 9.4
2016-Jan-30 18:33N 49°47' W 124°45'7 6.8
2016-Jan-30 17:33N 49°44' W 124°55'1111.4
2016-Jan-30 16:34N 49°48' W 124°39'3 2.7
2016-Jan-30 15:33N 49°50' W 124°35'1312.6
2016-Jan-30 14:33N 49°45' W 124°53'1 1.5
2016-Jan-30 13:33N 49°44' W 124°55'0 0.0
2016-Jan-30 12:30N 49°44' W 124°55'0 0.0
2016-Jan-30 11:33N 49°44' W 124°55'0 0.0
2016-Jan-30 10:33N 49°44' W 124°55'0 0.0
2016-Jan-30 09:30N 49°44' W 124°55'0 0.0
2016-Jan-30 08:33N 49°44' W 124°55'0 0.0
2016-Jan-30 07:33N 49°44' W 124°55'0 0.0
2016-Jan-30 06:33N 49°44' W 124°55'6 5.5
2016-Jan-30 05:33N 49°47' W 124°48'1110.6
2016-Jan-30 04:33N 49°50' W 124°32'1312.7
2016-Jan-30 03:33N 49°46' W 124°50'4 3.6
2016-Jan-30 02:33N 49°44' W 124°55'1212.3
2016-Jan-30 01:33N 49°49' W 124°38'4 3.8
2016-Jan-30 00:33N 49°50' W 124°32'1413.5
2016-Jan-29 23:33N 49°46' W 124°52'3 2.4
2016-Jan-29 22:29N 49°44' W 124°55'0 0.0
2016-Jan-29 21:32N 49°44' W 124°55'9 9.3
2016-Jan-29 20:34N 49°47' W 124°42'7 7.3
2016-Jan-29 19:33N 49°50' W 124°32'1211.6
2016-Jan-29 18:34N 49°45' W 124°48'5 4.6
2016-Jan-29 17:34N 49°44' W 124°55'1111.0
2016-Jan-29 16:33N 49°48' W 124°39'3 3.5
2016-Jan-29 15:33N 49°50' W 124°35'1313.0
2016-Jan-29 14:33N 49°45' W 124°53'  
Track history (hours):
 
Tides and Currents Weather Stations Pressure Air Temp Water Temp Dewpoint Dewpoint Depression Visibility Wind Speed Wind Dir Waves Ship Positions

Queen Of Burnaby

Last reported at 2016-Feb-08 14:33 UTC. Time now 2016-Feb-08 14:36 UTC.
Position N 49°45' W 124°53'.

Length 130 m; draft 4 m.

MMSI: 316001246.

Date/timePositionNaut miles runAvg speedWind from/ knotsBaromVisibWave heightAir tempDewpointWater temp
2016-Feb-08 14:33N 49°45' W 124°53'2 2.0
2016-Feb-08 13:33N 49°44' W 124°55'0 0.0
2016-Feb-08 12:33N 49°44' W 124°55'0 0.0
2016-Feb-08 11:33N 49°44' W 124°55'0 0.0
2016-Feb-08 10:30N 49°44' W 124°55'0 0.0
2016-Feb-08 09:21N 49°44' W 124°55'0 0.0
2016-Feb-08 08:33N 49°44' W 124°55'0 0.0
2016-Feb-08 07:12N 49°44' W 124°55'0 0.0
2016-Feb-08 06:24N 49°44' W 124°55'5 6.1
2016-Feb-08 05:34N 49°46' W 124°48'1111.1
2016-Feb-08 04:33N 49°50' W 124°32'1313.5
2016-Feb-08 03:33N 49°45' W 124°51'2 1.5
2016-Feb-08 02:33N 49°45' W 124°54'1211.5
2016-Feb-08 01:33N 49°49' W 124°37'3 2.6
2016-Feb-08 00:33N 49°50' W 124°33'1515.1
2016-Feb-07 23:33N 49°45' W 124°55'0 0.3
2016-Feb-07 22:30N 49°44' W 124°55'0 0.0
2016-Feb-07 21:30N 49°44' W 124°55'8 8.0
2016-Feb-07 20:33N 49°47' W 124°44'9 8.5
2016-Feb-07 19:32N 49°50' W 124°32'1010.4
2016-Feb-07 18:33N 49°46' W 124°46'6 6.2
2016-Feb-07 17:33N 49°44' W 124°55'1110.8
2016-Feb-07 16:34N 49°48' W 124°40'3 3.5
2016-Feb-07 15:33N 49°50' W 124°35'1212.3
2016-Feb-07 14:33N 49°45' W 124°53'2 1.9
2016-Feb-07 13:30N 49°44' W 124°55'0 0.0
2016-Feb-07 12:33N 49°44' W 124°55'0 0.0
2016-Feb-07 11:24N 49°44' W 124°55'0 0.0
2016-Feb-07 10:30N 49°44' W 124°55'0 0.0
2016-Feb-07 09:33N 49°44' W 124°55'0 0.0
2016-Feb-07 08:33N 49°44' W 124°55'0 0.0
2016-Feb-07 07:33N 49°44' W 124°55'0 0.0
2016-Feb-07 06:30N 49°44' W 124°55'5 5.5
2016-Feb-07 05:33N 49°46' W 124°48'1111.1
2016-Feb-07 04:33N 49°50' W 124°32'9 9.2
2016-Feb-07 03:33N 49°47' W 124°45'7 6.6
2016-Feb-07 02:29N 49°44' W 124°55'0 0.0
2016-Feb-07 01:26N 49°44' W 124°55'0 0.0
2016-Feb-07 00:23N 49°44' W 124°55'0 0.0
2016-Feb-06 22:29N 49°44' W 124°55'0 0.0
2016-Feb-06 21:29N 49°44' W 124°55'7 7.6
2016-Feb-06 20:33N 49°47' W 124°45'9 8.7
2016-Feb-06 19:31N 49°50' W 124°32'1010.9
2016-Feb-06 18:33N 49°47' W 124°47'6 5.8
2016-Feb-06 17:33N 49°44' W 124°55'1111.4
2016-Feb-06 16:33N 49°48' W 124°39'3 3.3
2016-Feb-06 15:33N 49°50' W 124°35'1312.7
2016-Feb-06 14:33N 49°45' W 124°53'2 1.9
2016-Feb-06 13:31N 49°44' W 124°55'0 0.0
2016-Feb-06 12:28N 49°44' W 124°55'0 0.0
2016-Feb-06 11:31N 49°44' W 124°55'0 0.0
2016-Feb-06 10:16N 49°44' W 124°55'0 0.0
2016-Feb-06 09:31N 49°44' W 124°55'0 0.0
2016-Feb-06 08:31N 49°44' W 124°55'0 0.0
2016-Feb-06 07:25N 49°44' W 124°55'0 0.0
2016-Feb-06 06:28N 49°44' W 124°55'8 8.3
2016-Feb-06 05:33N 49°47' W 124°45'9 8.6
2016-Feb-06 04:33N 49°50' W 124°32'1413.6
2016-Feb-06 03:33N 49°45' W 124°52'3 2.5
2016-Feb-06 02:29N 49°44' W 124°55'0 0.0
2016-Feb-06 01:32N 49°44' W 124°55'0 0.0
2016-Feb-06 00:29N 49°44' W 124°55'0 0.0
2016-Feb-05 23:32N 49°44' W 124°55'0 0.0
2016-Feb-05 22:23N 49°44' W 124°55'0 0.0
2016-Feb-05 21:32N 49°44' W 124°55'1010.7
2016-Feb-05 20:34N 49°45' W 124°39'7 7.2
2016-Feb-05 19:33N 49°50' W 124°32'1010.3
2016-Feb-05 18:33N 49°45' W 124°46'6 6.2
2016-Feb-05 17:33N 49°44' W 124°55'0 0.0
2016-Feb-05 16:23N 49°44' W 124°55'0 0.0
2016-Feb-05 15:32N 49°44' W 124°55'0 0.0
2016-Feb-05 14:29N 49°44' W 124°55'0 0.0
2016-Feb-05 13:32N 49°44' W 124°55'0 0.0
2016-Feb-05 12:23N 49°44' W 124°55'0 0.0
2016-Feb-05 11:29N 49°44' W 124°55'0 0.0
2016-Feb-05 10:26N 49°44' W 124°55'0 0.0
2016-Feb-05 09:32N 49°44' W 124°55'0 0.0
2016-Feb-05 08:32N 49°44' W 124°55'0 0.0
2016-Feb-05 07:32N 49°44' W 124°55'0 0.0
2016-Feb-05 06:29N 49°44' W 124°55'8 8.7
2016-Feb-05 05:33N 49°47' W 124°44'8 8.1
2016-Feb-05 04:33N 49°50' W 124°32'1313.0
2016-Feb-05 03:33N 49°45' W 124°51'3 3.1
2016-Feb-05 02:34N 49°44' W 124°55'1313.2
2016-Feb-05 01:34N 49°49' W 124°36'2 2.1
2016-Feb-05 00:33N 49°50' W 124°33'1312.7
2016-Feb-04 23:33N 49°46' W 124°52'3 2.2
2016-Feb-04 22:20N 49°44' W 124°55'0 0.0
2016-Feb-04 21:32N 49°44' W 124°55'8 7.8
2016-Feb-04 20:33N 49°47' W 124°44'9 8.5
2016-Feb-04 19:33N 49°50' W 124°32'10 9.7
2016-Feb-04 18:33N 49°47' W 124°46'6 6.2
2016-Feb-04 17:30N 49°44' W 124°55'1111.9
2016-Feb-04 16:33N 49°48' W 124°39'3 3.3
2016-Feb-04 15:33N 49°50' W 124°35'1313.4
2016-Feb-04 14:33N 49°45' W 124°54'1 1.2
2016-Feb-04 13:31N 49°44' W 124°55'0 0.0
2016-Feb-04 10:25N 49°44' W 124°55'0 0.0
2016-Feb-04 09:31N 49°44' W 124°55'6 1.5
2016-Feb-04 05:33N 49°47' W 124°47'1010.1
2016-Feb-04 04:33N 49°50' W 124°32'10 9.6
2016-Feb-04 03:33N 49°45' W 124°45'7 5.0
2016-Feb-04 02:10N 49°44' W 124°55'0 0.0
2016-Feb-04 01:31N 49°44' W 124°55'0 0.0
2016-Feb-04 00:31N 49°44' W 124°55'0 0.0
2016-Feb-03 23:28N 49°44' W 124°55'0 0.0
2016-Feb-03 22:28N 49°44' W 124°55'0 0.0
2016-Feb-03 21:28N 49°44' W 124°55'1010.7
2016-Feb-03 20:34N 49°43' W 124°40'9 8.9
2016-Feb-03 19:33N 49°50' W 124°32'10 9.8
2016-Feb-03 18:33N 49°45' W 124°45'7 6.6
2016-Feb-03 17:34N 49°44' W 124°55'1010.5
2016-Feb-03 16:33N 49°47' W 124°40'5 4.6
2016-Feb-03 15:33N 49°50' W 124°35'1312.8
2016-Feb-03 14:34N 49°46' W 124°53'2 1.7
2016-Feb-03 13:27N 49°44' W 124°55'0 0.0
2016-Feb-03 12:30N 49°44' W 124°55'0 0.0
2016-Feb-03 11:30N 49°44' W 124°55'0 0.0
2016-Feb-03 10:33N 49°44' W 124°55'0 0.0
2016-Feb-03 09:33N 49°44' W 124°55'0 0.0
2016-Feb-03 08:30N 49°44' W 124°55'0 0.0
2016-Feb-03 07:33N 49°44' W 124°55'0 0.0
2016-Feb-03 06:30N 49°44' W 124°55'5 5.6
2016-Feb-03 05:33N 49°47' W 124°48'1110.9
2016-Feb-03 04:33N 49°50' W 124°32'1313.3
2016-Feb-03 03:33N 49°46' W 124°51'3 2.9
2016-Feb-03 02:33N 49°44' W 124°55'1212.3
2016-Feb-03 01:34N 49°49' W 124°38'3 2.9
2016-Feb-03 00:33N 49°50' W 124°34'1212.3
2016-Feb-02 23:33N 49°46' W 124°52'3 2.6
2016-Feb-02 22:29N 49°44' W 124°55'0 0.0
2016-Feb-02 21:29N 49°44' W 124°55'8 9.0
2016-Feb-02 20:33N 49°47' W 124°44'8 8.0
2016-Feb-02 19:34N 49°50' W 124°32'1010.0
2016-Feb-02 18:33N 49°47' W 124°47'6 6.1
2016-Feb-02 17:33N 49°44' W 124°55'1111.4
2016-Feb-02 16:34N 49°48' W 124°39'4 3.5
2016-Feb-02 15:33N 49°50' W 124°34'1313.2
2016-Feb-02 14:33N 49°45' W 124°53'2 1.3
2016-Feb-02 13:24N 49°44' W 124°55'0 0.0
2016-Feb-02 12:33N 49°44' W 124°55'0 0.0
2016-Feb-02 11:30N 49°44' W 124°55'0 0.0
2016-Feb-02 10:30N 49°44' W 124°55'0 0.0
2016-Feb-02 09:30N 49°44' W 124°55'0 0.0
2016-Feb-02 07:12N 49°44' W 124°55'0 0.0
2016-Feb-02 06:24N 49°44' W 124°55'8 9.9
2016-Feb-02 05:33N 49°48' W 124°44'6 6.2
2016-Feb-02 04:33N 49°50' W 124°35'1414.3
2016-Feb-02 03:33N 49°44' W 124°55'0 0.0
2016-Feb-02 02:33N 49°44' W 124°55'1212.4
2016-Feb-02 01:33N 49°49' W 124°38'3 2.6
2016-Feb-02 00:33N 49°50' W 124°34'1212.2
2016-Feb-01 23:33N 49°45' W 124°52'3 2.3
2016-Feb-01 22:27N 49°44' W 124°55'0 0.0
2016-Feb-01 21:19N 49°44' W 124°55'810.1
2016-Feb-01 20:34N 49°47' W 124°44'9 8.5
2016-Feb-01 19:33N 49°50' W 124°32'10 9.9
2016-Feb-01 18:33N 49°47' W 124°46'6 6.2
2016-Feb-01 17:32N 49°44' W 124°55'1212.0
2016-Feb-01 16:34N 49°49' W 124°38'2 2.0
2016-Feb-01 15:33N 49°50' W 124°36'1212.0
2016-Feb-01 14:33N 49°45' W 124°53'2 0.9
2016-Feb-01 12:33N 49°44' W 124°55'0 0.0
2016-Feb-01 11:33N 49°44' W 124°55'0 0.0
2016-Feb-01 07:18N 49°44' W 124°55'0 0.0
2016-Feb-01 06:33N 49°44' W 124°55'5 5.3
2016-Feb-01 05:33N 49°46' W 124°48'1110.9
2016-Feb-01 04:34N 49°50' W 124°32'1312.6
2016-Feb-01 03:34N 49°46' W 124°50'2 2.2
2016-Feb-01 02:33N 49°45' W 124°53'1111.4
2016-Feb-01 01:33N 49°49' W 124°37'3 3.1
2016-Feb-01 00:33N 49°50' W 124°33'1313.0
2016-Jan-31 23:33N 49°46' W 124°51'3 2.3
2016-Jan-31 22:19N 49°44' W 124°55'0 0.0
2016-Jan-31 21:28N 49°44' W 124°55'8 9.2
2016-Jan-31 20:33N 49°47' W 124°43'8 7.8
2016-Jan-31 19:33N 49°50' W 124°32'10 9.8
2016-Jan-31 18:33N 49°47' W 124°46'6 6.4
2016-Jan-31 17:33N 49°44' W 124°55'1110.8
2016-Jan-31 16:33N 49°48' W 124°40'3 3.3
2016-Jan-31 15:33N 49°50' W 124°35'1313.0
2016-Jan-31 14:33N 49°45' W 124°54'1 1.1
2016-Jan-31 13:31N 49°44' W 124°55'0 0.0
2016-Jan-31 12:31N 49°44' W 124°55'0 0.0
2016-Jan-31 11:28N 49°44' W 124°55'0 0.0
2016-Jan-31 10:28N 49°44' W 124°55'0 0.0
2016-Jan-31 09:28N 49°44' W 124°55'0 0.0
2016-Jan-31 08:28N 49°44' W 124°55'0 0.0
2016-Jan-31 07:28N 49°44' W 124°55'0 0.0
2016-Jan-31 06:28N 49°44' W 124°55'5 6.0
2016-Jan-31 05:34N 49°46' W 124°48'1110.8
2016-Jan-31 04:33N 49°50' W 124°32'9 8.9
2016-Jan-31 03:33N 49°47' W 124°45'7 6.8
2016-Jan-31 02:29N 49°44' W 124°55'0 0.0
2016-Jan-31 01:29N 49°44' W 124°55'0 0.0
2016-Jan-31 00:32N 49°44' W 124°55'0 0.0
2016-Jan-30 23:33N 49°44' W 124°55'0 0.0
2016-Jan-30 22:33N 49°44' W 124°55'0 0.0
2016-Jan-30 21:33N 49°44' W 124°55'8 7.7
2016-Jan-30 20:34N 49°46' W 124°44'9 8.7
2016-Jan-30 19:33N 49°50' W 124°32'9 9.4
2016-Jan-30 18:33N 49°47' W 124°45'7 6.8
2016-Jan-30 17:33N 49°44' W 124°55'1111.4
2016-Jan-30 16:34N 49°48' W 124°39'3 2.7
2016-Jan-30 15:33N 49°50' W 124°35'1312.6
2016-Jan-30 14:33N 49°45' W 124°53'1 1.5
2016-Jan-30 13:33N 49°44' W 124°55'0 0.0
2016-Jan-30 12:30N 49°44' W 124°55'0 0.0
2016-Jan-30 11:33N 49°44' W 124°55'0 0.0
2016-Jan-30 10:33N 49°44' W 124°55'0 0.0
2016-Jan-30 09:30N 49°44' W 124°55'0 0.0
2016-Jan-30 08:33N 49°44' W 124°55'0 0.0
2016-Jan-30 07:33N 49°44' W 124°55'0 0.0
2016-Jan-30 06:33N 49°44' W 124°55'6 5.5
2016-Jan-30 05:33N 49°47' W 124°48'1110.6
2016-Jan-30 04:33N 49°50' W 124°32'1312.7
2016-Jan-30 03:33N 49°46' W 124°50'4 3.6
2016-Jan-30 02:33N 49°44' W 124°55'1212.3
2016-Jan-30 01:33N 49°49' W 124°38'4 3.8
2016-Jan-30 00:33N 49°50' W 124°32'1413.5
2016-Jan-29 23:33N 49°46' W 124°52'3 2.4
2016-Jan-29 22:29N 49°44' W 124°55'0 0.0
2016-Jan-29 21:32N 49°44' W 124°55'9 9.3
2016-Jan-29 20:34N 49°47' W 124°42'7 7.3
2016-Jan-29 19:33N 49°50' W 124°32'1211.6
2016-Jan-29 18:34N 49°45' W 124°48'5 4.6
2016-Jan-29 17:34N 49°44' W 124°55'1111.0
2016-Jan-29 16:33N 49°48' W 124°39'3 3.5
2016-Jan-29 15:33N 49°50' W 124°35'1313.0
2016-Jan-29 14:33N 49°45' W 124°53'  

Dump ship's entire track history